• Join FlightAware (Why Join?)
  • Login
  • US Flag 
07:59AM EST


 

Airport Tracker/Info


-or-


 

Live Flight TrackerFlight Track Log ✈ N755BW ✈ 01-Aug-2013 ✈ KCHS - NC81

Flight Track Log - Related Links

Times and Time Zones

All times are in EDT time to prevent confusion due to time zone crossing. See the N755BW flight status page for this flight to view local times or setup timezone preferences in your user account.

Time Position Orientation Groundspeed Altitude Reporting Facility
EDT Latitude Longitude Course Direction KTS MPH feet Rate Location/Type
01:06PM 34.1516 -79.5324 19° North  Level Estimated
01:07PM 34.1979 -79.5133 19° North  Level Estimated
01:08PM 34.2443 -79.4942 19° North  Level Estimated
01:09PM 34.2906 -79.4751 19° North  Level Estimated
01:10PM 34.3370 -79.4559 19° North  Level Estimated
01:11PM 34.3834 -79.4367 19° North  Level Estimated
01:12PM 34.4297 -79.4175 19° North  Level Estimated
01:13PM 34.4761 -79.3982 19° North  Level Estimated
01:14PM 34.5224 -79.3790 19° North  Level Estimated
01:15PM 34.5687 -79.3597 19° North  Level Estimated
01:16PM 34.6151 -79.3404 19° North  Level Estimated
01:17PM 34.6614 -79.3211 19° North  Level Estimated
01:18PM 34.7077 -79.3018 19° North  Level Estimated
01:19PM 34.7541 -79.2824 19° North  Level Estimated
01:20PM 34.8004 -79.2630 19° North  Level Estimated
01:21PM 34.8467 -79.2436 19° North  Level Estimated
01:22PM 34.8930 -79.2242 19° North  Level Estimated
01:23PM 34.9393 -79.2048 19° North  Level Estimated
01:24PM 34.9856 -79.1853 19° North  Level Estimated
01:25PM 35.0320 -79.1658 19° North  Level Estimated
01:26PM 35.0783 -79.1463 19° North  Level Estimated
01:27PM 35.1246 -79.1267 19° North  Level Estimated
01:28PM 35.1709 -79.1072 19° North  Level Estimated
01:29PM 35.2172 -79.0876 19° North  Level Estimated
01:30PM 35.2635 -79.0680 19° North  Level Estimated
01:31PM 35.3097 -79.0484 19° North  Level Estimated
01:32PM 35.3560 -79.0287 19° North  Level Estimated
01:33PM 35.4023 -79.0090 19° North  Level Estimated
01:33PM 35.4156 -78.9028 19° North 184 212 5,000  Level Washington Center
01:34PM 35.4486 -78.9894 19° North  Level Estimated
01:34PM 35.4572 -78.8967 North 184 212 5,000  Level Washington Center
01:35PM 35.4949 -78.9696 19° North  Level Estimated
01:35PM 35.5056 -78.8886 North 179 206 5,000  Level Washington Center
01:36PM 35.5411 -78.9499 19° North  Level Estimated
01:36PM 35.5494 -78.8853 North 160 184 5,000  Level Washington Center
01:37PM 35.5874 -78.9301 19° North  Level Estimated
01:37PM 35.5933 -78.8819 North 153 176 4,200  Level Washington Center
01:38PM 35.6337 -78.9103 19° North  Level Estimated
01:38PM 35.6414 -78.8839 358° North 175 201 3,000  Level Washington Center
01:39PM 35.6847 -78.9036 340° North 173 199 1,900 -1,140 Descending Washington Center